Time;durP1;ratioP1;P1;durP2;ratioP2;P2;SDS_P1;SDS_P2;PMS_P1;PMS_P2;Temp;Humidity;BMP_temperature;BMP_pressure;BME280_temperature;BME280_humidity;BME280_pressure;Samples;Min_cycle;Max_cycle;Signal;HPM_P1;HPM_P2
2022/04/03 00:02:14;;;;;;;6.10;3.58;;;0.30;99.90;;;;;;4981430;28;20202;-48
2022/04/03 00:04:42;;;;;;;5.82;3.00;;;0.20;99.90;;;;;;4981283;28;20412;-47
2022/04/03 00:07:10;;;;;;;5.55;3.45;;;0.30;99.90;;;;;;4980018;28;20238;-46
2022/04/03 00:09:37;;;;;;;9.15;4.32;;;0.30;99.90;;;;;;4980669;28;20316;-48
2022/04/03 00:12:05;;;;;;;6.75;4.70;;;0.30;99.90;;;;;;4980860;28;20206;-45
2022/04/03 00:14:32;;;;;;;5.47;3.75;;;0.30;99.90;;;;;;4981627;28;20325;-48
2022/04/03 00:16:59;;;;;;;7.35;4.20;;;0.30;99.90;;;;;;4983973;28;20257;-45
2022/04/03 00:19:27;;;;;;;8.82;3.90;;;0.30;99.90;;;;;;4985018;28;20222;-46
2022/04/03 00:21:55;;;;;;;4.60;3.60;;;0.30;99.90;;;;;;4984449;28;20209;-45
2022/04/03 00:24:22;;;;;;;5.65;4.07;;;0.20;99.90;;;;;;4985191;28;20206;-48
2022/04/03 00:26:49;;;;;;;4.15;2.60;;;0.20;99.90;;;;;;4984601;28;20229;-46
2022/04/03 00:29:16;;;;;;;6.93;3.42;;;0.20;99.90;;;;;;4976895;28;20241;-47
2022/04/03 00:31:44;;;;;;;5.15;3.17;;;0.20;99.90;;;;;;4984423;28;20209;-48
2022/04/03 00:34:11;;;;;;;3.35;2.60;;;0.20;99.90;;;;;;4984767;28;20277;-46
2022/04/03 00:36:48;;;;;;;2.88;2.67;;;0.10;99.90;;;;;;4984224;28;20236;-49
2022/04/03 00:39:16;;;;;;;5.05;3.05;;;0.10;99.90;;;;;;4984478;28;20409;-45
2022/04/03 00:41:43;;;;;;;7.05;3.35;;;0.10;99.90;;;;;;4984126;28;20276;-50
2022/04/03 00:44:11;;;;;;;5.68;3.08;;;0.10;99.90;;;;;;4985319;28;20220;-48
2022/04/03 00:46:41;;;;;;;3.05;2.75;;;0.10;99.90;;;;;;4984273;28;20373;-48
2022/04/03 00:49:09;;;;;;;3.67;2.92;;;0.10;99.90;;;;;;4984614;28;20229;-47
2022/04/03 00:51:37;;;;;;;6.07;3.15;;;0.10;99.90;;;;;;4983952;28;20452;-49
2022/04/03 00:54:04;;;;;;;9.00;3.17;;;0.00;99.90;;;;;;4984683;28;20209;-48
2022/04/03 00:56:32;;;;;;;5.35;3.08;;;0.10;99.90;;;;;;4984223;28;20225;-46
2022/04/03 00:59:01;;;;;;;3.13;2.30;;;0.00;99.90;;;;;;4984549;28;20201;-44
2022/04/03 01:01:27;;;;;;;3.60;2.67;;;0.00;99.90;;;;;;4984673;28;20214;-45
2022/04/03 01:03:55;;;;;;;3.03;2.70;;;0.00;99.90;;;;;;4983848;28;20214;-45
2022/04/03 01:06:22;;;;;;;5.35;2.50;;;0.00;99.90;;;;;;4984648;28;20564;-46
2022/04/03 01:08:50;;;;;;;5.63;2.35;;;0.00;99.90;;;;;;4984272;28;20237;-45
2022/04/03 01:11:21;;;;;;;6.68;3.88;;;-0.10;99.90;;;;;;4986098;28;20317;-46
2022/04/03 01:13:50;;;;;;;4.47;3.75;;;-0.10;99.90;;;;;;4991275;28;20210;-50
2022/04/03 01:16:19;;;;;;;6.50;4.60;;;0.00;99.90;;;;;;4987139;28;20218;-45
2022/04/03 01:18:55;;;;;;;3.20;2.47;;;-0.10;99.90;;;;;;4984000;28;20265;-47
2022/04/03 01:21:24;;;;;;;3.25;2.47;;;-0.10;99.90;;;;;;4983885;28;20453;-46
2022/04/03 01:23:54;;;;;;;3.90;2.70;;;-0.10;99.90;;;;;;4984194;28;20198;-45
2022/04/03 01:26:24;;;;;;;4.50;2.53;;;-0.10;99.90;;;;;;4983392;28;20445;-45
2022/04/03 01:28:53;;;;;;;6.40;3.30;;;-0.10;99.90;;;;;;4983511;28;20198;-46
2022/04/03 01:31:20;;;;;;;2.70;2.40;;;-0.10;99.90;;;;;;4983305;28;20221;-46
2022/04/03 01:33:48;;;;;;;4.03;3.00;;;-0.10;99.90;;;;;;4983357;28;20257;-45
2022/04/03 01:36:18;;;;;;;2.42;2.13;;;-0.10;99.90;;;;;;4983403;28;20228;-45
2022/04/03 01:38:45;;;;;;;5.63;2.80;;;-0.10;99.90;;;;;;4982863;28;20205;-44
2022/04/03 01:41:15;;;;;;;2.08;1.88;;;-0.10;99.90;;;;;;4983347;28;20198;-45
2022/04/03 01:43:50;;;;;;;4.70;3.28;;;-0.20;99.90;;;;;;4982822;28;20206;-48
2022/04/03 01:46:17;;;;;;;2.72;2.50;;;-0.20;99.90;;;;;;4982504;28;20202;-47
2022/04/03 01:48:44;;;;;;;4.38;3.50;;;-0.20;99.90;;;;;;4983079;28;20521;-46
2022/04/03 01:51:12;;;;;;;3.45;2.78;;;-0.20;99.90;;;;;;4981948;28;20210;-45
2022/04/03 01:53:39;;;;;;;5.43;3.92;;;-0.20;99.90;;;;;;4982823;28;20209;-45
2022/04/03 01:56:07;;;;;;;5.65;3.30;;;-0.30;99.90;;;;;;4982887;28;20233;-46
2022/04/03 01:58:35;;;;;;;4.47;2.80;;;-0.30;99.90;;;;;;4982583;28;20222;-46
2022/04/03 02:01:04;;;;;;;6.22;3.20;;;-0.30;99.90;;;;;;4974282;28;20194;-46
2022/04/03 02:03:31;;;;;;;6.25;3.50;;;-0.40;99.90;;;;;;4974038;28;20206;-48
2022/04/03 02:05:58;;;;;;;3.97;2.47;;;-0.40;99.90;;;;;;4975167;28;20250;-48
2022/04/03 02:08:27;;;;;;;8.57;3.88;;;-0.50;99.90;;;;;;4976635;28;20241;-45
2022/04/03 02:10:54;;;;;;;6.05;3.45;;;-0.50;99.90;;;;;;4982909;28;20206;-48
2022/04/03 02:13:22;;;;;;;4.32;2.95;;;-0.50;99.90;;;;;;4984949;28;20432;-44
2022/04/03 02:15:49;;;;;;;4.68;2.83;;;-0.50;99.90;;;;;;4985751;28;20236;-43
2022/04/03 02:18:17;;;;;;;13.23;3.90;;;-0.50;99.90;;;;;;4982517;28;20273;-48
2022/04/03 02:20:45;;;;;;;5.50;3.30;;;-0.50;99.90;;;;;;4982763;28;20216;-45
2022/04/03 02:23:13;;;;;;;5.30;2.58;;;-0.50;99.90;;;;;;4982288;28;20550;-49
2022/04/03 02:25:40;;;;;;;2.78;2.33;;;-0.50;99.90;;;;;;4982634;28;20245;-45
2022/04/03 02:28:10;;;;;;;4.88;2.95;;;-0.50;99.90;;;;;;4982681;28;20557;-43
2022/04/03 02:30:38;;;;;;;2.83;2.55;;;-0.50;99.90;;;;;;4982882;28;20509;-48
2022/04/03 02:33:06;;;;;;;4.32;2.78;;;-0.50;99.90;;;;;;4984131;28;20199;-45
2022/04/03 02:35:36;;;;;;;10.88;3.70;;;-0.50;99.90;;;;;;4984420;28;20187;-45
2022/04/03 02:38:07;;;;;;;5.57;2.42;;;-0.60;99.90;;;;;;4985028;28;20218;-46
2022/04/03 02:40:35;;;;;;;3.00;2.75;;;-0.60;99.90;;;;;;4983832;28;20214;-46
2022/04/03 02:43:04;;;;;;;2.80;2.60;;;-0.60;99.90;;;;;;4983279;28;20225;-50
2022/04/03 02:45:31;;;;;;;2.88;2.67;;;-0.60;99.90;;;;;;4982725;28;20226;-48
2022/04/03 02:48:01;;;;;;;3.50;2.88;;;-0.50;99.90;;;;;;4982513;28;20289;-47
2022/04/03 02:50:29;;;;;;;5.28;3.55;;;-0.50;99.90;;;;;;4977667;28;20331;-50
2022/04/03 02:52:56;;;;;;;6.30;3.70;;;-0.50;99.90;;;;;;4980159;28;20210;-44
2022/04/03 02:55:25;;;;;;;3.08;2.70;;;-0.60;99.90;;;;;;4984074;28;20198;-46
2022/04/03 02:57:53;;;;;;;5.60;3.13;;;-0.60;99.90;;;;;;4983527;28;20351;-44
2022/04/03 03:00:20;;;;;;;3.65;2.92;;;-0.60;99.90;;;;;;4983932;28;20229;-45
2022/04/03 03:02:49;;;;;;;4.38;3.95;;;-0.70;99.90;;;;;;4984360;28;20424;-44
2022/04/03 03:05:18;;;;;;;3.00;2.20;;;-0.70;99.90;;;;;;4984020;28;20217;-49
2022/04/03 03:07:46;;;;;;;4.65;3.58;;;-0.60;99.90;;;;;;4988309;28;20289;-49
2022/04/03 03:10:19;;;;;;;7.63;3.63;;;-0.70;99.90;;;;;;4989184;28;20441;-48
2022/04/03 03:12:47;;;;;;;4.32;3.13;;;-0.80;99.90;;;;;;4989429;28;20382;-49
2022/04/03 03:15:15;;;;;;;4.68;2.72;;;-0.70;99.90;;;;;;4988576;28;20202;-45
2022/04/03 03:17:43;;;;;;;4.60;3.03;;;-0.70;99.90;;;;;;4984640;28;20707;-46
2022/04/03 03:20:18;;;;;;;10.07;3.95;;;-0.80;99.90;;;;;;4982421;28;20202;-46
2022/04/03 03:22:46;;;;;;;3.80;3.40;;;-0.90;99.90;;;;;;4981203;28;20202;-48
2022/04/03 03:25:18;;;;;;;4.72;3.13;;;-0.90;99.90;;;;;;4981463;28;20198;-52
2022/04/03 03:27:46;;;;;;;8.20;3.60;;;-0.90;99.90;;;;;;4981178;28;20214;-44
2022/04/03 03:30:14;;;;;;;4.00;3.15;;;-0.90;99.90;;;;;;4981877;28;20257;-44
2022/04/03 03:32:41;;;;;;;5.68;2.47;;;-1.00;99.90;;;;;;4981634;28;20206;-44
2022/04/03 03:35:08;;;;;;;5.53;3.63;;;-0.90;99.90;;;;;;4981060;28;20249;-46
2022/04/03 03:37:37;;;;;;;5.00;3.78;;;-0.90;99.90;;;;;;4981085;28;20269;-48
2022/04/03 03:40:06;;;;;;;4.03;2.22;;;-1.00;99.90;;;;;;4981490;28;20433;-48
2022/04/03 03:42:34;;;;;;;3.30;3.00;;;-1.10;99.90;;;;;;4981433;28;20255;-46
2022/04/03 03:45:02;;;;;;;3.95;2.72;;;-1.10;99.90;;;;;;4981162;28;20239;-48
2022/04/03 03:47:29;;;;;;;5.10;2.75;;;-1.10;99.90;;;;;;4980935;28;20249;-47
2022/04/03 03:49:57;;;;;;;2.67;2.47;;;-1.10;99.90;;;;;;4981177;28;20222;-44
2022/04/03 03:52:24;;;;;;;4.05;3.10;;;-1.10;99.90;;;;;;4981238;28;20202;-45
2022/04/03 03:54:52;;;;;;;2.30;2.10;;;-1.00;99.90;;;;;;4981148;28;20472;-45
2022/04/03 03:57:19;;;;;;;5.28;3.00;;;-1.20;99.90;;;;;;4981017;28;20233;-48
2022/04/03 03:59:47;;;;;;;3.28;2.63;;;-1.10;99.90;;;;;;4981042;28;20225;-51
2022/04/03 04:02:16;;;;;;;5.93;2.75;;;-1.20;99.90;;;;;;4981003;28;20253;-48
2022/04/03 04:04:43;;;;;;;4.07;3.28;;;-1.20;99.90;;;;;;4982412;28;20202;-48
2022/04/03 04:07:11;;;;;;;3.35;2.78;;;-1.20;99.90;;;;;;4987609;28;20351;-48
2022/04/03 04:09:39;;;;;;;2.78;2.42;;;-1.20;99.90;;;;;;4984441;28;20206;-47
2022/04/03 04:12:09;;;;;;;3.30;2.83;;;-1.20;99.90;;;;;;4981319;28;20493;-44
2022/04/03 04:14:38;;;;;;;4.07;2.85;;;-1.20;99.90;;;;;;4980606;28;20226;-48
2022/04/03 04:17:09;;;;;;;8.07;4.40;;;-1.20;99.90;;;;;;4980904;28;20540;-47
2022/04/03 04:19:36;;;;;;;8.75;2.97;;;-1.20;99.90;;;;;;4980863;28;20293;-43
2022/04/03 04:22:04;;;;;;;6.40;2.83;;;-1.20;99.90;;;;;;4981058;28;20206;-45
2022/04/03 04:24:32;;;;;;;3.33;2.35;;;-1.10;99.90;;;;;;4980848;28;20239;-48
2022/04/03 04:26:59;;;;;;;3.00;2.20;;;-1.20;99.90;;;;;;4980414;28;20222;-47
2022/04/03 04:29:27;;;;;;;3.97;3.67;;;-1.10;99.90;;;;;;4981327;28;20328;-44
2022/04/03 04:31:54;;;;;;;4.00;3.03;;;-1.10;99.90;;;;;;4980420;28;20245;-44
2022/04/03 04:34:21;;;;;;;5.07;2.95;;;-1.10;99.90;;;;;;4980953;28;20203;-44
2022/04/03 04:36:49;;;;;;;2.75;2.55;;;-1.10;99.90;;;;;;4979841;28;20238;-50
2022/04/03 04:39:16;;;;;;;3.15;2.70;;;-1.10;99.90;;;;;;4984112;28;20249;-46
2022/04/03 04:41:43;;;;;;;3.35;3.05;;;-1.10;99.90;;;;;;4984185;28;20230;-46
2022/04/03 04:44:11;;;;;;;4.75;3.03;;;-1.00;99.90;;;;;;4984751;28;20199;-55
2022/04/03 04:46:39;;;;;;;2.72;2.53;;;-0.90;99.90;;;;;;4983688;28;20221;-48
2022/04/03 04:49:07;;;;;;;5.65;2.47;;;-0.90;99.90;;;;;;4982369;28;20281;-43
2022/04/03 04:51:35;;;;;;;3.40;3.10;;;-0.90;99.90;;;;;;4982493;28;20202;-52
2022/04/03 04:54:03;;;;;;;4.05;3.33;;;-0.80;99.90;;;;;;4982630;28;20432;-50
2022/04/03 04:56:30;;;;;;;6.43;3.25;;;-0.70;99.90;;;;;;4981890;28;20251;-46
2022/04/03 04:58:57;;;;;;;5.38;2.65;;;-0.60;99.90;;;;;;4981864;28;20568;-47
2022/04/03 05:01:25;;;;;;;5.70;3.88;;;-0.60;99.90;;;;;;4982794;28;20386;-44
2022/04/03 05:03:53;;;;;;;2.78;2.38;;;-0.50;99.90;;;;;;4986527;28;20363;-45
2022/04/03 05:06:23;;;;;;;4.65;2.70;;;-0.50;99.90;;;;;;4984967;28;20233;-44
2022/04/03 05:08:51;;;;;;;3.00;2.28;;;-0.50;99.90;;;;;;4983745;28;20207;-47
2022/04/03 05:11:18;;;;;;;4.00;3.33;;;-0.40;99.90;;;;;;4983881;28;20427;-42
2022/04/03 05:13:46;;;;;;;3.95;2.47;;;-0.30;99.90;;;;;;4983221;28;20521;-46
2022/04/03 05:16:15;;;;;;;3.90;2.88;;;-0.50;99.90;;;;;;4983797;28;20370;-44
2022/04/03 05:18:42;;;;;;;3.42;2.60;;;-0.50;99.90;;;;;;4983320;28;20457;-44
2022/04/03 05:21:10;;;;;;;5.50;2.70;;;-0.50;99.90;;;;;;4983729;28;20237;-45
2022/04/03 05:23:41;;;;;;;4.65;2.72;;;-0.50;99.90;;;;;;4983524;28;20501;-49
2022/04/03 05:26:10;;;;;;;5.47;2.75;;;-0.40;99.90;;;;;;4983205;28;20198;-45
2022/04/03 05:28:38;;;;;;;2.67;2.47;;;-0.40;99.90;;;;;;4983269;28;20394;-44
2022/04/03 05:31:07;;;;;;;2.83;2.53;;;-0.40;99.90;;;;;;4983058;28;20456;-45
2022/04/03 05:33:36;;;;;;;5.15;2.92;;;-0.30;99.90;;;;;;4983740;28;20249;-47
2022/04/03 05:36:04;;;;;;;6.13;4.13;;;-0.30;99.90;;;;;;4984872;28;20198;-44
2022/04/03 05:38:32;;;;;;;2.88;2.67;;;-0.30;99.90;;;;;;4984768;28;20233;-49
2022/04/03 05:41:00;;;;;;;8.35;3.95;;;-0.10;99.90;;;;;;4984292;28;20249;-44
2022/04/03 05:43:27;;;;;;;2.58;2.30;;;0.00;99.90;;;;;;4984952;28;20194;-47
2022/04/03 05:45:54;;;;;;;2.50;2.30;;;0.10;99.90;;;;;;4986147;28;20199;-50
2022/04/03 05:48:22;;;;;;;6.20;2.80;;;0.10;99.90;;;;;;4985842;28;20261;-45
2022/04/03 05:50:50;;;;;;;6.03;3.28;;;0.20;99.90;;;;;;4984920;28;20245;-44
2022/04/03 05:53:17;;;;;;;8.13;3.75;;;0.10;99.90;;;;;;4975929;28;20198;-46
2022/04/03 05:55:52;;;;;;;3.22;2.72;;;0.20;99.90;;;;;;4985516;28;20302;-44
2022/04/03 05:58:19;;;;;;;5.63;2.05;;;0.10;99.90;;;;;;4983029;28;20280;-46
2022/04/03 06:00:47;;;;;;;4.85;2.65;;;0.10;99.90;;;;;;4982665;28;20194;-46
2022/04/03 06:03:17;;;;;;;2.95;2.40;;;0.20;99.90;;;;;;4983041;28;20237;-46
2022/04/03 06:05:47;;;;;;;6.82;2.33;;;0.20;99.90;;;;;;4982185;28;20487;-49
2022/04/03 06:08:16;;;;;;;2.65;2.30;;;0.10;99.90;;;;;;4981534;28;20230;-46
2022/04/03 06:10:44;;;;;;;4.95;2.80;;;0.20;99.90;;;;;;4982232;28;20207;-46
2022/04/03 06:13:13;;;;;;;3.30;2.90;;;0.40;99.90;;;;;;4981472;28;20206;-46
2022/04/03 06:15:42;;;;;;;5.43;3.60;;;0.60;99.90;;;;;;4982393;28;20206;-46
2022/04/03 06:18:18;;;;;;;3.00;2.70;;;0.80;99.90;;;;;;4982010;28;20244;-45
2022/04/03 06:20:47;;;;;;;3.67;2.83;;;1.20;99.90;;;;;;4982903;28;20489;-48
2022/04/03 06:23:18;;;;;;;3.80;2.53;;;1.30;99.90;;;;;;4982203;28;20216;-48
2022/04/03 06:25:47;;;;;;;3.47;2.60;;;1.10;99.90;;;;;;4982406;28;20429;-46
2022/04/03 06:28:15;;;;;;;5.85;3.78;;;1.00;99.90;;;;;;4982918;28;20449;-51
2022/04/03 06:30:44;;;;;;;2.90;2.60;;;0.90;99.90;;;;;;4981729;28;20265;-43
2022/04/03 06:33:14;;;;;;;4.10;3.70;;;0.70;99.90;;;;;;4982679;28;20277;-49
2022/04/03 06:35:43;;;;;;;2.90;2.60;;;0.60;99.90;;;;;;4981998;28;20292;-47
2022/04/03 06:38:11;;;;;;;4.18;2.28;;;0.60;99.90;;;;;;4983272;28;20230;-46
2022/04/03 06:40:53;;;;;;;3.03;2.22;;;0.90;99.90;;;;;;4982976;28;20248;-44
2022/04/03 06:43:23;;;;;;;3.10;2.88;;;2.10;99.90;;;;;;4976039;28;20315;-48
2022/04/03 06:45:51;;;;;;;3.33;2.67;;;3.60;99.90;;;;;;4982982;28;20204;-46
2022/04/03 06:48:20;;;;;;;4.70;2.53;;;4.40;99.90;;;;;;4982833;28;20579;-45
2022/04/03 06:50:47;;;;;;;3.90;2.63;;;5.00;99.90;;;;;;4985633;28;20526;-49
2022/04/03 06:53:15;;;;;;;3.42;3.13;;;5.30;99.90;;;;;;4984420;28;20205;-49
2022/04/03 06:55:42;;;;;;;2.03;1.92;;;5.90;99.90;;;;;;4982083;28;20220;-46
2022/04/03 06:58:10;;;;;;;3.00;2.58;;;6.20;99.90;;;;;;4987462;28;20230;-44
2022/04/03 07:00:38;;;;;;;2.38;2.17;;;7.60;99.90;;;;;;4985200;28;20249;-52
2022/04/03 07:03:05;;;;;;;5.07;2.95;;;8.20;99.90;;;;;;4982823;28;20497;-48
2022/04/03 07:05:34;;;;;;;1.88;1.75;;;8.40;99.90;;;;;;4976450;28;20202;-47
2022/04/03 07:08:02;;;;;;;4.50;2.97;;;8.50;99.90;;;;;;4981648;28;20230;-49
2022/04/03 07:10:33;;;;;;;8.48;3.17;;;8.20;99.90;;;;;;4983377;28;20441;-50
2022/04/03 07:13:00;;;;;;;3.15;2.85;;;8.40;99.90;;;;;;4982184;28;20206;-45
2022/04/03 07:15:27;;;;;;;5.68;2.97;;;9.40;99.90;;;;;;4981113;28;20452;-49
2022/04/03 07:17:55;;;;;;;3.60;3.05;;;11.20;99.90;;;;;;4979654;28;20530;-47
2022/04/03 07:20:22;;;;;;;5.88;3.17;;;10.70;99.20;;;;;;4981336;28;20255;-45
2022/04/03 07:22:51;;;;;;;5.10;2.85;;;9.30;99.90;;;;;;4974686;28;20280;-51
2022/04/03 07:25:22;;;;;;;13.88;3.00;;;8.20;99.90;;;;;;4977327;28;20226;-47
2022/04/03 07:27:52;;;;;;;3.28;2.67;;;7.50;99.90;;;;;;4981132;28;20294;-53
2022/04/03 07:30:19;;;;;;;2.88;1.98;;;6.70;99.90;;;;;;4988007;28;20399;-48
2022/04/03 07:32:47;;;;;;;4.03;2.30;;;6.20;99.90;;;;;;4985231;28;20230;-46
2022/04/03 07:35:14;;;;;;;3.28;2.28;;;5.60;99.90;;;;;;4981721;28;20202;-51
2022/04/03 07:37:42;;;;;;;1.95;1.85;;;5.20;99.90;;;;;;4978724;28;20484;-46
2022/04/03 07:40:11;;;;;;;4.30;2.65;;;5.00;99.90;;;;;;4979549;28;20205;-46
2022/04/03 07:42:39;;;;;;;2.33;2.13;;;5.10;99.90;;;;;;4976547;28;20203;-50
2022/04/03 07:45:08;;;;;;;3.05;2.67;;;5.70;99.90;;;;;;4972428;28;20432;-50
2022/04/03 07:47:35;;;;;;;2.85;2.22;;;6.00;99.90;;;;;;4974011;28;20225;-50
2022/04/03 07:50:04;;;;;;;5.43;2.50;;;5.70;99.90;;;;;;4974118;28;20210;-46
2022/04/03 07:52:32;;;;;;;3.15;1.60;;;5.10;99.90;;;;;;4978573;28;20241;-48
2022/04/03 07:55:00;;;;;;;2.90;2.45;;;4.20;99.90;;;;;;4979194;28;20210;-50
2022/04/03 07:57:28;;;;;;;2.55;1.80;;;4.50;99.90;;;;;;4979818;28;20237;-45
2022/04/03 08:00:00;;;;;;;2.58;2.17;;;4.60;99.90;;;;;;4976110;28;20567;-45
2022/04/03 08:02:32;;;;;;;1.75;1.65;;;5.00;99.90;;;;;;4980035;28;20232;-49
2022/04/03 08:04:59;;;;;;;2.25;2.05;;;5.20;99.90;;;;;;4980142;28;20198;-45
2022/04/03 08:07:43;;;;;;;2.13;2.03;;;4.50;99.90;;;;;;4980231;28;20285;-50
2022/04/03 08:10:13;;;;;;;2.47;2.15;;;4.50;99.90;;;;;;4980486;28;20202;-52
2022/04/03 08:12:42;;;;;;;2.80;1.88;;;5.20;99.90;;;;;;4975283;28;20206;-49
2022/04/03 08:15:15;;;;;;;2.40;2.28;;;5.90;99.90;;;;;;4981041;28;20217;-47
2022/04/03 08:17:47;;;;;;;4.60;1.90;;;7.10;99.90;;;;;;4978708;28;20352;-48
2022/04/03 08:20:16;;;;;;;2.75;2.55;;;8.40;99.90;;;;;;4980066;28;20313;-49
2022/04/03 08:22:45;;;;;;;6.03;2.35;;;8.70;99.70;;;;;;4977448;28;20203;-50
2022/04/03 08:25:13;;;;;;;2.40;2.20;;;7.50;99.90;;;;;;4977181;28;20206;-47
2022/04/03 08:27:54;;;;;;;2.00;1.80;;;5.80;99.90;;;;;;4980023;28;20556;-48
2022/04/03 08:30:36;;;;;;;2.13;1.95;;;4.90;99.90;;;;;;4978975;28;20397;-48
2022/04/03 08:33:05;;;;;;;1.77;1.67;;;5.10;99.90;;;;;;4980236;28;20400;-48
2022/04/03 08:35:37;;;;;;;3.13;2.45;;;5.00;99.90;;;;;;4976239;28;20210;-52
2022/04/03 08:38:05;;;;;;;4.22;2.33;;;4.40;99.90;;;;;;4979727;28;20525;-46
2022/04/03 08:40:38;;;;;;;5.55;1.92;;;4.20;99.90;;;;;;4982150;28;20205;-47
2022/04/03 08:43:05;;;;;;;1.65;1.55;;;4.10;99.90;;;;;;4979801;28;20193;-45
2022/04/03 08:45:33;;;;;;;4.32;1.88;;;3.80;99.90;;;;;;4974383;28;20267;-49
2022/04/03 08:48:02;;;;;;;2.85;1.70;;;3.70;99.90;;;;;;4974310;28;20224;-48
2022/04/03 08:50:31;;;;;;;2.53;1.40;;;3.80;99.90;;;;;;4974866;28;20241;-45
2022/04/03 08:53:01;;;;;;;2.22;1.10;;;3.60;99.90;;;;;;4973845;28;20213;-48
2022/04/03 08:55:30;;;;;;;1.52;1.42;;;3.50;99.90;;;;;;4976320;28;20488;-48
2022/04/03 08:57:57;;;;;;;1.60;1.42;;;3.50;99.90;;;;;;4975998;28;20231;-50
2022/04/03 09:00:25;;;;;;;1.30;1.20;;;3.80;99.90;;;;;;4977392;28;20229;-46
2022/04/03 09:02:52;;;;;;;2.17;1.98;;;4.00;99.90;;;;;;4975678;28;20436;-45
2022/04/03 09:05:20;;;;;;;2.67;1.58;;;4.20;99.90;;;;;;4978628;28;20204;-46
2022/04/03 09:08:03;;;;;;;2.67;1.70;;;4.50;99.90;;;;;;4976761;28;20585;-50
2022/04/03 09:10:31;;;;;;;2.38;1.83;;;5.00;99.90;;;;;;4975600;28;20474;-49
2022/04/03 09:12:58;;;;;;;1.83;1.70;;;5.40;99.00;;;;;;4976582;28;20272;-47
2022/04/03 09:15:27;;;;;;;3.28;1.52;;;5.80;98.20;;;;;;4976959;28;20213;-46
2022/04/03 09:17:56;;;;;;;1.27;1.10;;;7.20;96.20;;;;;;4975220;28;20245;-49
2022/04/03 09:20:26;;;;;;;1.27;1.17;;;7.80;94.30;;;;;;4977490;28;20379;-48
2022/04/03 09:23:03;;;;;;;1.27;1.10;;;7.10;94.30;;;;;;4975557;28;20202;-45
2022/04/03 09:25:36;;;;;;;1.83;1.73;;;5.80;96.10;;;;;;4978685;28;20234;-47
2022/04/03 09:28:06;;;;;;;1.75;1.65;;;5.10;98.20;;;;;;4979089;28;20552;-46
2022/04/03 09:30:43;;;;;;;5.20;2.10;;;4.50;99.30;;;;;;4979337;28;20605;-47
2022/04/03 09:33:12;;;;;;;2.25;2.03;;;4.50;99.20;;;;;;4977872;28;20280;-48
2022/04/03 09:36:08;;;;;;;1.50;1.30;;;4.80;98.10;;;;;;4979723;28;20238;-47
2022/04/03 09:38:39;;;;;;;3.33;2.08;;;5.10;97.40;;;;;;4982404;28;20522;-45
2022/04/03 09:41:07;;;;;;;1.02;1.00;;;5.00;97.40;;;;;;4982406;28;20201;-46
2022/04/03 09:43:40;;;;;;;1.70;1.02;;;4.90;97.60;;;;;;4983270;28;20244;-52
2022/04/03 09:46:15;;;;;;;3.85;1.40;;;4.70;97.40;;;;;;4982285;28;20229;-47
2022/04/03 09:48:43;;;;;;;1.67;1.35;;;4.40;98.70;;;;;;4986411;28;20589;-49
2022/04/03 09:51:27;;;;;;;1.42;1.33;;;4.80;98.60;;;;;;4984477;28;20241;-53
2022/04/03 09:54:02;;;;;;;1.63;1.13;;;5.00;96.50;;;;;;4980533;28;20210;-48
2022/04/03 09:56:33;;;;;;;3.22;1.90;;;5.50;97.10;;;;;;4980069;28;20278;-50
2022/04/03 09:59:09;;;;;;;1.25;1.10;;;6.30;96.00;;;;;;4982189;28;20214;-50
2022/04/03 10:01:39;;;;;;;2.20;1.08;;;6.60;94.60;;;;;;4980008;28;20252;-55
2022/04/03 10:04:18;;;;;;;1.40;1.30;;;6.60;94.80;;;;;;4976404;28;20222;-50
2022/04/03 10:06:52;;;;;;;2.33;1.67;;;6.10;95.00;;;;;;4974706;28;20266;-48
2022/04/03 10:09:20;;;;;;;1.30;0.90;;;5.40;97.00;;;;;;4979172;28;20201;-52
2022/04/03 10:12:09;;;;;;;2.55;1.48;;;5.40;98.80;;;;;;4976700;28;20241;-48
2022/04/03 10:14:51;;;;;;;1.95;1.20;;;5.30;98.10;;;;;;4978043;28;20210;-52
2022/04/03 10:17:35;;;;;;;1.55;1.45;;;5.30;99.10;;;;;;4981074;28;20440;-52
2022/04/03 10:20:15;;;;;;;2.33;2.05;;;5.10;99.20;;;;;;4972270;28;20275;-47
2022/04/03 10:22:51;;;;;;;1.70;1.45;;;4.70;99.90;;;;;;4976430;28;20217;-48
2022/04/03 10:25:24;;;;;;;2.25;1.58;;;4.60;99.90;;;;;;4978288;28;20240;-48
2022/04/03 10:27:52;;;;;;;3.40;1.33;;;4.60;99.90;;;;;;4981604;28;20229;-57
2022/04/03 10:30:45;;;;;;;2.00;1.90;;;4.80;99.90;;;;;;4978919;28;20505;-47
2022/04/03 10:33:19;;;;;;;2.78;1.65;;;5.20;99.90;;;;;;4981530;28;20445;-52
2022/04/03 10:36:01;;;;;;;1.85;1.63;;;4.60;99.90;;;;;;4981244;28;20206;-50
2022/04/03 10:38:42;;;;;;;1.80;1.70;;;4.60;99.90;;;;;;4979397;28;20229;-52
2022/04/03 10:41:30;;;;;;;1.95;1.77;;;5.20;99.90;;;;;;4979513;28;20233;-48
2022/04/03 10:44:10;;;;;;;1.27;1.08;;;5.40;99.90;;;;;;4976785;28;20205;-49
2022/04/03 10:47:03;;;;;;;3.92;1.90;;;5.10;99.90;;;;;;4977241;28;20218;-50
2022/04/03 10:49:43;;;;;;;2.00;1.40;;;5.10;99.90;;;;;;4977650;28;20298;-49
2022/04/03 10:52:25;;;;;;;1.67;1.00;;;4.80;99.90;;;;;;4979617;28;20214;-49
2022/04/03 10:54:55;;;;;;;2.45;2.00;;;5.00;99.90;;;;;;4979443;28;20605;-51
2022/04/03 10:57:49;;;;;;;5.00;1.45;;;5.40;99.90;;;;;;4978249;28;20255;-51
2022/04/03 11:00:16;;;;;;;1.35;1.25;;;5.80;99.90;;;;;;4979209;28;20236;-49
2022/04/03 11:02:55;;;;;;;1.00;1.00;;;5.90;99.00;;;;;;4980152;28;20198;-54
2022/04/03 11:05:25;;;;;;;3.40;1.67;;;5.50;99.00;;;;;;4978368;28;20484;-51
2022/04/03 11:07:54;;;;;;;1.30;1.20;;;5.20;99.90;;;;;;4979759;28;20547;-50
2022/04/03 11:10:59;;;;;;;2.53;1.77;;;5.10;99.80;;;;;;4980026;28;20441;-49
2022/04/03 11:13:29;;;;;;;2.47;1.63;;;5.00;99.90;;;;;;4978357;28;20244;-48
2022/04/03 11:15:59;;;;;;;4.47;1.73;;;4.70;99.90;;;;;;4977551;28;20246;-53
2022/04/03 11:18:32;;;;;;;3.78;1.85;;;4.70;99.90;;;;;;4979651;28;20272;-49
2022/04/03 11:21:21;;;;;;;1.02;0.70;;;4.40;99.90;;;;;;4979928;28;20255;-54
2022/04/03 11:24:09;;;;;;;1.35;1.25;;;4.30;99.90;;;;;;4976626;28;20273;-50
2022/04/03 11:26:38;;;;;;;1.30;1.20;;;4.30;99.90;;;;;;4977620;28;20240;-53
2022/04/03 11:29:10;;;;;;;5.38;2.13;;;4.80;99.90;;;;;;4980853;28;20402;-51
2022/04/03 11:31:40;;;;;;;1.80;1.65;;;5.30;99.90;;;;;;4978043;28;20290;-46
2022/04/03 11:34:08;;;;;;;2.60;1.45;;;5.30;99.90;;;;;;4980674;28;20213;-52
2022/04/03 11:36:39;;;;;;;1.42;1.33;;;5.00;98.90;;;;;;4979835;28;20222;-48
2022/04/03 11:39:09;;;;;;;4.38;2.13;;;5.50;99.50;;;;;;4977356;28;20237;-48
2022/04/03 11:41:38;;;;;;;1.67;1.10;;;5.70;97.60;;;;;;4978633;28;20211;-53
2022/04/03 11:44:12;;;;;;;1.08;0.85;;;5.70;97.10;;;;;;4979489;28;20272;-54
2022/04/03 11:46:48;;;;;;;1.25;1.15;;;6.00;95.60;;;;;;4979714;28;20256;-54
2022/04/03 11:49:28;;;;;;;3.63;1.50;;;6.20;92.80;;;;;;4977644;28;20496;-51
2022/04/03 11:52:11;;;;;;;1.30;1.20;;;6.10;93.00;;;;;;4978815;28;20205;-49
2022/04/03 11:54:39;;;;;;;1.75;1.65;;;6.00;94.60;;;;;;4976720;28;20264;-51
2022/04/03 11:57:08;;;;;;;1.48;1.20;;;6.00;94.60;;;;;;4975728;28;20229;-49
2022/04/03 11:59:37;;;;;;;1.85;1.60;;;5.90;94.80;;;;;;4976424;28;20276;-50
2022/04/03 12:02:09;;;;;;;1.00;1.00;;;5.90;95.00;;;;;;4979855;28;20205;-47
2022/04/03 12:04:41;;;;;;;1.60;1.30;;;6.20;94.50;;;;;;4975741;28;20233;-49
2022/04/03 12:07:13;;;;;;;1.40;1.15;;;6.70;92.00;;;;;;4981053;28;20226;-46
2022/04/03 12:09:42;;;;;;;2.05;1.58;;;7.20;92.70;;;;;;4981326;28;20209;-52
2022/04/03 12:12:12;;;;;;;1.35;1.25;;;7.30;92.60;;;;;;4983809;28;20201;-49
2022/04/03 12:14:44;;;;;;;2.08;1.48;;;7.30;91.80;;;;;;4982060;28;20219;-53
2022/04/03 12:17:15;;;;;;;3.90;1.65;;;7.20;91.90;;;;;;4978179;28;20479;-49
2022/04/03 12:19:47;;;;;;;1.95;1.45;;;6.60;91.40;;;;;;4975043;28;20559;-50
2022/04/03 12:22:18;;;;;;;1.52;1.42;;;6.10;92.30;;;;;;4978361;28;20205;-48
2022/04/03 12:24:47;;;;;;;1.45;1.30;;;5.80;92.20;;;;;;4976373;28;20516;-52
2022/04/03 12:27:14;;;;;;;1.23;1.13;;;6.00;92.40;;;;;;4979066;28;20317;-47
2022/04/03 12:29:48;;;;;;;1.33;1.23;;;6.10;92.30;;;;;;4978321;28;20397;-50
2022/04/03 12:32:39;;;;;;;1.38;1.27;;;6.50;92.50;;;;;;4980907;28;20340;-53
2022/04/03 12:35:09;;;;;;;2.03;1.50;;;6.00;92.80;;;;;;4980797;28;20503;-49
2022/04/03 12:37:41;;;;;;;1.75;1.17;;;6.20;92.70;;;;;;4981338;28;20533;-55
2022/04/03 12:40:15;;;;;;;1.85;1.70;;;6.50;93.40;;;;;;4979370;28;20234;-49
2022/04/03 12:42:44;;;;;;;1.10;1.10;;;6.50;92.70;;;;;;4977187;28;20203;-52
2022/04/03 12:45:12;;;;;;;6.00;2.60;;;6.40;93.80;;;;;;4971551;28;20206;-47
2022/04/03 12:47:48;;;;;;;1.33;1.23;;;6.60;92.90;;;;;;4975023;28;20223;-49
2022/04/03 12:50:21;;;;;;;3.70;1.88;;;6.60;92.30;;;;;;4980697;28;20201;-48
2022/04/03 12:52:50;;;;;;;3.33;1.70;;;6.70;92.90;;;;;;4981237;28;20236;-52
2022/04/03 13:00:48;;;;;;;1.65;1.00;;;6.80;93.10;;;;;;4984981;28;20210;-49
2022/04/03 13:03:29;;;;;;;2.35;1.52;;;7.00;92.30;;;;;;4983353;28;20520;-48
2022/04/03 13:05:58;;;;;;;1.58;1.48;;;7.10;92.30;;;;;;4984930;28;20202;-53
2022/04/03 13:08:27;;;;;;;1.85;1.55;;;7.30;92.00;;;;;;4984298;28;20266;-47
2022/04/03 13:10:57;;;;;;;2.10;1.55;;;7.50;91.50;;;;;;4984180;28;20206;-51
2022/04/03 13:13:29;;;;;;;3.63;1.85;;;7.50;91.10;;;;;;4983564;28;20205;-49
2022/04/03 13:15:57;;;;;;;1.38;1.10;;;7.40;89.70;;;;;;4983745;28;20202;-53